Time;durP1;ratioP1;P1;durP2;ratioP2;P2;SDS_P1;SDS_P2;PMS_P1;PMS_P2;Temp;Humidity;BMP_temperature;BMP_pressure;BME280_temperature;BME280_humidity;BME280_pressure;Samples;Min_cycle;Max_cycle;Signal;HPM_P1;HPM_P2
2021/01/27 00:01:12;;;;;;;6.70;3.63;;;;;;;;;;5132711;27;20102;-80
2021/01/27 00:03:37;;;;;;;6.87;3.47;;;;;;;;;;5132689;27;20012;-80
2021/01/27 00:06:03;;;;;;;7.73;3.30;;;;;;;;;;5132372;27;20011;-80
2021/01/27 00:08:28;;;;;;;6.57;3.17;;;;;;;;;;5134016;27;20019;-80
2021/01/27 00:10:53;;;;;;;12.63;3.33;;;;;;;;;;5132456;27;20037;-80
2021/01/27 00:13:19;;;;;;;6.90;3.27;;;;;;;;;;5133923;27;20068;-80
2021/01/27 00:15:44;;;;;;;7.73;3.57;;;;;;;;;;5134339;27;20015;-80
2021/01/27 00:18:11;;;;;;;8.43;3.10;;;;;;;;;;5131755;27;20027;-80
2021/01/27 00:20:36;;;;;;;6.27;2.87;;;;;;;;;;5132492;27;20101;-80
2021/01/27 00:23:01;;;;;;;6.00;3.00;;;;;;;;;;5131988;27;20491;-80
2021/01/27 00:25:28;;;;;;;5.30;2.93;;;;;;;;;;5132283;27;20019;-80
2021/01/27 00:27:53;;;;;;;7.57;3.40;;;;;;;;;;5132080;27;20068;-80
2021/01/27 00:30:23;;;;;;;6.13;2.87;;;;;;;;;;5129786;27;20015;-80
2021/01/27 00:32:49;;;;;;;9.20;3.27;;;;;;;;;;5125520;28;20434;-80
2021/01/27 00:35:16;;;;;;;7.50;3.00;;;;;;;;;;5133363;27;20070;-80
2021/01/27 00:37:41;;;;;;;14.53;3.17;;;;;;;;;;5132179;28;20037;-80
2021/01/27 00:40:07;;;;;;;8.27;3.37;;;;;;;;;;5133509;28;20019;-80
2021/01/27 00:42:33;;;;;;;5.97;2.70;;;;;;;;;;5133585;27;20035;-80
2021/01/27 00:44:58;;;;;;;7.40;2.63;;;;;;;;;;5132253;28;20024;-81
2021/01/27 00:47:23;;;;;;;5.90;3.17;;;;;;;;;;5132207;28;20019;-80
2021/01/27 00:49:49;;;;;;;5.20;2.17;;;;;;;;;;5133566;28;20023;-81
2021/01/27 00:52:14;;;;;;;5.07;1.87;;;;;;;;;;5131978;28;20622;-81
2021/01/27 00:54:39;;;;;;;9.00;2.90;;;;;;;;;;5132181;28;20019;-81
2021/01/27 00:57:04;;;;;;;5.10;2.50;;;;;;;;;;5131886;28;20034;-81
2021/01/27 00:59:29;;;;;;;6.60;2.77;;;;;;;;;;5132276;28;20026;-81
2021/01/27 01:01:55;;;;;;;9.33;2.97;;;;;;;;;;5131992;28;20420;-81
2021/01/27 01:04:20;;;;;;;7.87;2.70;;;;;;;;;;5131350;28;20162;-81
2021/01/27 01:06:45;;;;;;;6.67;2.60;;;;;;;;;;5122780;28;20026;-81
2021/01/27 01:09:10;;;;;;;9.60;2.87;;;;;;;;;;5132972;28;20084;-81
2021/01/27 01:11:35;;;;;;;5.30;2.63;;;;;;;;;;5133189;28;20072;-81
2021/01/27 01:14:01;;;;;;;4.20;2.33;;;;;;;;;;5131697;28;20375;-81
2021/01/27 01:16:26;;;;;;;7.77;2.23;;;;;;;;;;5131708;28;20072;-81
2021/01/27 01:18:51;;;;;;;4.97;2.63;;;;;;;;;;5133154;28;20018;-81
2021/01/27 01:21:16;;;;;;;7.60;2.90;;;;;;;;;;5131821;28;20131;-81
2021/01/27 01:23:42;;;;;;;5.77;2.60;;;;;;;;;;5132509;28;20344;-81
2021/01/27 01:26:07;;;;;;;7.57;2.80;;;;;;;;;;5131568;28;20496;-81
2021/01/27 01:28:33;;;;;;;6.67;2.50;;;;;;;;;;5131629;28;20023;-81
2021/01/27 01:30:58;;;;;;;6.27;2.70;;;;;;;;;;5131857;28;20051;-81
2021/01/27 01:33:28;;;;;;;7.97;2.93;;;;;;;;;;5131736;28;20114;-81
2021/01/27 01:35:53;;;;;;;7.83;2.87;;;;;;;;;;5118751;28;20026;-81
2021/01/27 01:38:19;;;;;;;5.53;2.83;;;;;;;;;;5133370;27;20026;-81
2021/01/27 01:40:49;;;;;;;7.80;2.73;;;;;;;;;;5134930;27;20011;-81
2021/01/27 01:43:23;;;;;;;7.47;2.60;;;;;;;;;;5135596;27;20035;-82
2021/01/27 01:45:56;;;;;;;5.93;2.53;;;;;;;;;;5135034;27;20015;-81
2021/01/27 01:48:21;;;;;;;6.13;2.90;;;;;;;;;;5135579;27;20080;-81
2021/01/27 01:50:51;;;;;;;4.40;2.27;;;;;;;;;;5135104;27;20023;-81
2021/01/27 01:53:17;;;;;;;10.87;3.03;;;;;;;;;;5136341;27;20041;-81
2021/01/27 01:55:42;;;;;;;6.27;2.50;;;;;;;;;;5134942;27;20015;-81
2021/01/27 01:58:09;;;;;;;8.63;2.77;;;;;;;;;;5134712;27;20441;-81
2021/01/27 02:00:34;;;;;;;5.63;3.00;;;;;;;;;;5136447;27;20520;-82
2021/01/27 02:02:59;;;;;;;6.57;3.07;;;;;;;;;;5136081;27;20035;-81
2021/01/27 02:05:26;;;;;;;4.50;2.60;;;;;;;;;;5136334;27;20110;-81
2021/01/27 02:07:52;;;;;;;7.10;3.30;;;;;;;;;;5134602;27;20047;-82
2021/01/27 02:10:19;;;;;;;7.80;3.00;;;;;;;;;;5134903;27;20363;-82
2021/01/27 02:12:47;;;;;;;7.97;2.77;;;;;;;;;;5134753;27;20114;-82
2021/01/27 02:15:31;;;;;;;7.67;2.87;;;;;;;;;;5134340;27;20019;-82
2021/01/27 02:18:10;;;;;;;7.67;3.27;;;;;;;;;;5134589;27;20023;-81
2021/01/27 02:20:43;;;;;;;9.13;3.47;;;;;;;;;;5136014;27;20015;-82
2021/01/27 02:23:18;;;;;;;6.77;3.50;;;;;;;;;;5134461;27;20482;-81
2021/01/27 02:25:46;;;;;;;5.33;3.00;;;;;;;;;;5135834;27;20015;-81
2021/01/27 02:28:19;;;;;;;6.43;3.10;;;;;;;;;;5134178;27;20023;-81
2021/01/27 02:30:59;;;;;;;6.67;3.03;;;;;;;;;;5134001;27;20029;-82
2021/01/27 02:33:27;;;;;;;5.43;2.80;;;;;;;;;;5134251;27;20075;-81
2021/01/27 02:36:11;;;;;;;7.43;3.07;;;;;;;;;;5135653;27;20015;-81
2021/01/27 02:38:56;;;;;;;4.40;2.00;;;;;;;;;;5134203;27;20015;-81
2021/01/27 02:41:40;;;;;;;7.10;3.17;;;;;;;;;;5124511;27;20027;-81
2021/01/27 02:44:09;;;;;;;6.43;3.17;;;;;;;;;;5133954;27;20022;-81
2021/01/27 02:47:01;;;;;;;5.97;2.67;;;;;;;;;;5126701;27;20075;-82
2021/01/27 02:49:37;;;;;;;7.40;3.23;;;;;;;;;;5129324;27;20016;-82
2021/01/27 02:52:05;;;;;;;7.40;3.00;;;;;;;;;;5133970;27;20019;-82
2021/01/27 02:54:33;;;;;;;7.67;3.43;;;;;;;;;;5135459;27;20039;-81
2021/01/27 02:57:04;;;;;;;7.77;3.53;;;;;;;;;;5135036;27;20022;-81
2021/01/27 02:59:36;;;;;;;5.83;2.50;;;;;;;;;;5135462;27;20106;-81
2021/01/27 03:02:06;;;;;;;7.50;3.83;;;;;;;;;;5133905;27;20056;-81
2021/01/27 03:04:34;;;;;;;6.00;3.00;;;;;;;;;;5134079;27;20075;-81
2021/01/27 03:07:01;;;;;;;4.47;2.77;;;;;;;;;;5133711;27;20024;-81
2021/01/27 03:09:35;;;;;;;6.80;3.40;;;;;;;;;;5133480;27;20026;-81
2021/01/27 03:12:00;;;;;;;9.50;3.27;;;;;;;;;;5134861;27;20167;-81
2021/01/27 03:14:26;;;;;;;3.93;2.40;;;;;;;;;;5133441;27;20052;-81
2021/01/27 03:17:01;;;;;;;6.90;3.17;;;;;;;;;;5133251;27;20054;-81
2021/01/27 03:19:31;;;;;;;7.23;2.90;;;;;;;;;;5133304;27;20042;-81
2021/01/27 03:21:58;;;;;;;2.27;0.90;;;;;;;;;;5133351;27;20455;-81
2021/01/27 03:24:24;;;;;;;7.13;3.07;;;;;;;;;;5133375;27;20402;-81
2021/01/27 03:26:49;;;;;;;5.77;2.80;;;;;;;;;;5132829;27;20030;-81
2021/01/27 03:29:14;;;;;;;4.68;2.95;;;;;;;;;;5133220;27;20114;-81
2021/01/27 03:31:39;;;;;;;7.60;3.45;;;;;;;;;;5132975;27;20019;-80
2021/01/27 03:34:14;;;;;;;6.47;2.70;;;;;;;;;;5133047;27;20027;-81
2021/01/27 03:36:43;;;;;;;6.53;2.63;;;;;;;;;;5132630;27;20118;-80
2021/01/27 03:39:11;;;;;;;6.70;3.20;;;;;;;;;;5134362;27;20038;-81
2021/01/27 03:41:45;;;;;;;5.17;2.83;;;;;;;;;;5132862;27;20019;-81
2021/01/27 03:44:16;;;;;;;5.90;2.93;;;;;;;;;;5116229;27;20085;-81
2021/01/27 03:46:45;;;;;;;4.63;2.70;;;;;;;;;;5127746;27;20011;-81
2021/01/27 03:49:13;;;;;;;6.03;2.60;;;;;;;;;;5132733;27;20072;-81
2021/01/27 03:51:43;;;;;;;5.40;2.63;;;;;;;;;;5134189;27;20011;-81
2021/01/27 03:54:12;;;;;;;8.20;3.07;;;;;;;;;;5132917;27;20022;-81
2021/01/27 03:56:43;;;;;;;5.40;2.67;;;;;;;;;;5132713;27;20027;-81
2021/01/27 03:59:11;;;;;;;5.37;2.60;;;;;;;;;;5133768;27;20434;-81
2021/01/27 04:01:50;;;;;;;5.63;3.07;;;;;;;;;;5132022;27;20034;-81
2021/01/27 04:04:15;;;;;;;4.73;2.87;;;;;;;;;;5132081;27;20019;-81
2021/01/27 04:06:41;;;;;;;3.87;2.47;;;;;;;;;;5132468;27;20063;-81
2021/01/27 04:09:06;;;;;;;4.83;2.80;;;;;;;;;;5133674;27;20181;-81
2021/01/27 04:11:31;;;;;;;4.40;2.30;;;;;;;;;;5132644;27;20022;-81
2021/01/27 04:13:57;;;;;;;4.83;2.83;;;;;;;;;;5132536;27;20019;-81
2021/01/27 04:16:22;;;;;;;5.10;2.40;;;;;;;;;;5132184;27;20019;-80
2021/01/27 04:18:47;;;;;;;3.53;2.13;;;;;;;;;;5131214;27;20019;-81
2021/01/27 04:21:13;;;;;;;4.17;2.30;;;;;;;;;;5132197;27;20042;-81
2021/01/27 04:23:38;;;;;;;3.80;1.40;;;;;;;;;;5132074;27;20470;-81
2021/01/27 04:26:03;;;;;;;4.33;2.13;;;;;;;;;;5132384;27;20064;-81
2021/01/27 04:28:28;;;;;;;5.33;2.40;;;;;;;;;;5132072;27;20019;-81
2021/01/27 04:30:54;;;;;;;4.40;2.30;;;;;;;;;;5132219;27;20015;-81
2021/01/27 04:33:19;;;;;;;4.57;2.40;;;;;;;;;;5131958;27;20019;-80
2021/01/27 04:35:44;;;;;;;4.53;2.47;;;;;;;;;;5131978;27;20087;-81
2021/01/27 04:38:09;;;;;;;4.73;2.47;;;;;;;;;;5132151;28;20098;-81
2021/01/27 04:40:34;;;;;;;3.93;1.97;;;;;;;;;;5133249;28;20015;-81
2021/01/27 04:43:01;;;;;;;4.40;1.90;;;;;;;;;;5133560;28;20015;-81
2021/01/27 04:45:26;;;;;;;6.60;2.20;;;;;;;;;;5132047;28;20016;-81
2021/01/27 04:47:51;;;;;;;3.30;1.93;;;;;;;;;;5133545;27;20477;-81
2021/01/27 04:50:21;;;;;;;4.27;2.20;;;;;;;;;;5132096;28;20462;-81
2021/01/27 04:52:51;;;;;;;3.77;1.90;;;;;;;;;;5131993;28;20355;-81
2021/01/27 04:55:33;;;;;;;4.17;1.83;;;;;;;;;;5132078;28;20027;-80
2021/01/27 04:58:17;;;;;;;5.40;1.98;;;;;;;;;;5132166;28;20149;-80
2021/01/27 05:00:42;;;;;;;4.00;2.07;;;;;;;;;;5131952;28;20011;-81
2021/01/27 05:03:13;;;;;;;6.57;2.10;;;;;;;;;;5131232;28;20027;-81
2021/01/27 05:05:41;;;;;;;5.57;2.07;;;;;;;;;;5131040;28;20015;-81
2021/01/27 05:08:06;;;;;;;6.33;2.10;;;;;;;;;;5132050;27;20249;-81
2021/01/27 05:10:58;;;;;;;3.27;1.97;;;;;;;;;;5132443;28;20127;-81
2021/01/27 05:13:30;;;;;;;5.20;2.27;;;;;;;;;;5118632;27;20087;-81
2021/01/27 05:16:06;;;;;;;4.97;2.30;;;;;;;;;;5134797;27;20023;-81
2021/01/27 05:18:31;;;;;;;3.60;1.97;;;;;;;;;;5134314;27;20016;-81
2021/01/27 05:20:56;;;;;;;6.73;2.20;;;;;;;;;;5135044;27;20026;-81
2021/01/27 05:23:22;;;;;;;4.00;2.20;;;;;;;;;;5134643;27;20374;-81
2021/01/27 05:26:02;;;;;;;4.80;2.40;;;;;;;;;;5136005;27;20470;-81
2021/01/27 05:28:30;;;;;;;3.77;2.03;;;;;;;;;;5134034;27;20023;-81
2021/01/27 05:30:55;;;;;;;3.83;2.40;;;;;;;;;;5135925;27;20110;-81
2021/01/27 05:33:39;;;;;;;5.67;2.67;;;;;;;;;;5134113;27;20046;-81
2021/01/27 05:36:08;;;;;;;8.90;3.30;;;;;;;;;;5135485;27;20408;-82
2021/01/27 05:38:34;;;;;;;10.13;5.83;;;;;;;;;;5135248;27;20023;-81
2021/01/27 05:41:22;;;;;;;4.13;2.60;;;;;;;;;;5136537;27;20359;-81
2021/01/27 05:43:49;;;;;;;4.50;2.57;;;;;;;;;;5126929;27;20034;-81
2021/01/27 05:46:27;;;;;;;3.30;1.97;;;;;;;;;;5136748;27;20015;-81
2021/01/27 05:48:52;;;;;;;6.93;2.43;;;;;;;;;;5136537;27;20094;-80
2021/01/27 05:51:25;;;;;;;4.30;2.70;;;;;;;;;;5135122;27;20119;-81
2021/01/27 05:53:50;;;;;;;;;;;;;;;;;;5135793;27;20470;-81
2021/01/27 05:56:23;;;;;;;4.18;2.25;;;;;;;;;;5135362;27;19948;-81
2021/01/27 05:58:48;;;;;;;4.93;2.57;;;;;;;;;;5135064;27;20106;-81
2021/01/27 06:01:28;;;;;;;4.32;2.50;;;;;;;;;;5134993;27;20070;-81
2021/01/27 06:03:55;;;;;;;3.90;2.20;;;;;;;;;;5136320;27;20023;-81
2021/01/27 06:06:20;;;;;;;3.77;2.20;;;;;;;;;;5134931;27;20019;-81
2021/01/27 06:08:50;;;;;;;4.20;2.27;;;;;;;;;;5134929;27;20036;-81
2021/01/27 06:11:16;;;;;;;6.03;2.87;;;;;;;;;;5134458;27;20038;-81
2021/01/27 06:13:41;;;;;;;4.57;2.30;;;;;;;;;;5134922;27;20023;-81
2021/01/27 06:16:20;;;;;;;6.87;2.83;;;;;;;;;;5134934;27;20027;-81
2021/01/27 06:18:46;;;;;;;4.33;2.70;;;;;;;;;;5118972;27;20024;-81
2021/01/27 06:21:17;;;;;;;6.30;2.80;;;;;;;;;;5128580;27;20099;-81
2021/01/27 06:24:05;;;;;;;6.17;3.03;;;;;;;;;;5133814;27;20032;-80
2021/01/27 06:26:33;;;;;;;3.70;2.47;;;;;;;;;;5129659;27;20030;-80
2021/01/27 06:29:17;;;;;;;5.47;3.23;;;;;;;;;;5134686;27;20015;-81
2021/01/27 06:31:45;;;;;;;6.57;2.80;;;;;;;;;;5134246;27;20035;-81
2021/01/27 06:34:32;;;;;;;6.30;2.60;;;;;;;;;;5135890;27;20042;-81
2021/01/27 06:36:58;;;;;;;4.57;2.73;;;;;;;;;;5134023;27;20079;-81
2021/01/27 06:39:29;;;;;;;7.30;2.90;;;;;;;;;;5134588;27;20023;-81
2021/01/27 06:42:07;;;;;;;6.17;3.03;;;;;;;;;;5133955;27;20018;-81
2021/01/27 06:44:41;;;;;;;5.70;2.63;;;;;;;;;;5134199;27;20023;-81
2021/01/27 06:47:11;;;;;;;6.07;3.30;;;;;;;;;;5134493;27;20054;-81
2021/01/27 06:49:55;;;;;;;6.20;3.43;;;;;;;;;;5135558;27;20189;-81
2021/01/27 06:52:21;;;;;;;5.80;3.43;;;;;;;;;;5133868;27;20389;-81
2021/01/27 06:54:55;;;;;;;5.53;2.90;;;;;;;;;;5135351;27;20030;-81
2021/01/27 06:57:40;;;;;;;6.40;3.10;;;;;;;;;;5133134;27;20019;-81
2021/01/27 07:00:21;;;;;;;7.13;2.80;;;;;;;;;;5135016;27;20807;-81
2021/01/27 07:03:05;;;;;;;5.50;3.00;;;;;;;;;;5134036;27;20018;-81
2021/01/27 07:05:45;;;;;;;5.70;3.17;;;;;;;;;;5133226;27;20060;-81
2021/01/27 07:08:10;;;;;;;5.70;3.23;;;;;;;;;;5121798;27;20023;-81
2021/01/27 07:10:55;;;;;;;5.47;3.00;;;;;;;;;;5133471;27;20038;-82
2021/01/27 07:13:39;;;;;;;7.47;3.43;;;;;;;;;;5134880;27;20023;-81
2021/01/27 07:16:10;;;;;;;5.10;3.10;;;;;;;;;;5133126;27;20027;-82
2021/01/27 07:18:36;;;;;;;4.18;2.92;;;;;;;;;;5119524;27;20026;-82
2021/01/27 07:21:13;;;;;;;8.40;2.90;;;;;;;;;;5133366;27;20019;-81
2021/01/27 07:23:48;;;;;;;5.80;2.97;;;;;;;;;;5133280;27;20007;-81
2021/01/27 07:26:16;;;;;;;4.00;2.40;;;;;;;;;;5134641;27;20019;-81
2021/01/27 07:28:59;;;;;;;4.93;2.80;;;;;;;;;;5133062;27;20425;-82
2021/01/27 07:31:37;;;;;;;3.67;2.87;;;;;;;;;;5133235;27;20023;-81
2021/01/27 07:34:03;;;;;;;5.07;3.17;;;;;;;;;;5117046;27;20116;-81
2021/01/27 07:36:34;;;;;;;5.10;2.90;;;;;;;;;;5126451;27;20376;-81
2021/01/27 07:39:01;;;;;;;4.83;3.53;;;;;;;;;;5133128;27;20079;-81
2021/01/27 07:41:28;;;;;;;3.30;2.50;;;;;;;;;;5132666;27;20469;-81
2021/01/27 07:43:55;;;;;;;4.67;2.60;;;;;;;;;;5132820;27;20095;-81
2021/01/27 07:46:29;;;;;;;4.13;2.87;;;;;;;;;;5133761;27;20122;-81
2021/01/27 07:48:58;;;;;;;4.03;3.00;;;;;;;;;;5131207;27;20037;-81
2021/01/27 07:51:25;;;;;;;3.97;2.73;;;;;;;;;;5131769;27;20030;-81
2021/01/27 07:54:00;;;;;;;3.90;2.90;;;;;;;;;;5132094;27;20461;-81
2021/01/27 07:56:46;;;;;;;3.50;2.50;;;;;;;;;;5133412;27;20023;-82
2021/01/27 07:59:27;;;;;;;3.83;2.70;;;;;;;;;;5080643;27;20398;-81
2021/01/27 08:01:56;;;;;;;4.17;2.77;;;;;;;;;;5132664;27;20113;-81
2021/01/27 08:04:21;;;;;;;4.73;2.80;;;;;;;;;;5133732;27;20462;-81
2021/01/27 08:06:48;;;;;;;3.67;2.60;;;;;;;;;;5132070;27;20023;-81
2021/01/27 08:09:22;;;;;;;4.10;3.00;;;;;;;;;;5133570;27;20415;-81
2021/01/27 08:11:47;;;;;;;5.17;3.10;;;;;;;;;;5132251;27;20046;-81
2021/01/27 08:14:14;;;;;;;4.37;2.57;;;;;;;;;;5131992;27;20019;-81
2021/01/27 08:16:40;;;;;;;4.97;3.10;;;;;;;;;;5131170;27;20019;-82
2021/01/27 08:19:12;;;;;;;4.97;3.20;;;;;;;;;;5130066;27;20026;-81
2021/01/27 08:21:47;;;;;;;4.63;3.00;;;;;;;;;;5131159;27;20067;-82
2021/01/27 08:24:30;;;;;;;3.60;2.90;;;;;;;;;;5131469;27;20019;-82
2021/01/27 08:26:56;;;;;;;4.93;3.63;;;;;;;;;;5130983;27;20054;-81
2021/01/27 08:29:26;;;;;;;5.90;3.27;;;;;;;;;;5130737;27;20053;-81
2021/01/27 08:32:14;;;;;;;5.37;3.37;;;;;;;;;;5132600;27;20055;-81
2021/01/27 08:34:43;;;;;;;7.10;3.27;;;;;;;;;;5124348;27;20031;-81
2021/01/27 08:37:09;;;;;;;4.03;3.20;;;;;;;;;;5131575;27;20024;-81
2021/01/27 08:39:34;;;;;;;9.13;4.47;;;;;;;;;;5131249;28;20015;-81
2021/01/27 08:42:17;;;;;;;6.00;3.40;;;;;;;;;;5131716;28;20019;-81
2021/01/27 08:44:42;;;;;;;8.20;3.80;;;;;;;;;;5132084;28;20422;-81
2021/01/27 08:47:08;;;;;;;9.07;5.20;;;;;;;;;;5133069;27;20047;-81
2021/01/27 08:49:43;;;;;;;6.13;3.70;;;;;;;;;;5134491;27;20019;-81
2021/01/27 08:52:08;;;;;;;7.70;5.10;;;;;;;;;;5135685;27;20027;-80
2021/01/27 08:54:39;;;;;;;7.50;4.50;;;;;;;;;;5137372;27;20027;-81
2021/01/27 08:57:13;;;;;;;6.23;3.67;;;;;;;;;;5136716;27;20384;-81
2021/01/27 08:59:52;;;;;;;5.47;3.67;;;;;;;;;;5135459;27;20011;-81
2021/01/27 09:02:37;;;;;;;7.07;4.47;;;;;;;;;;5134991;27;20027;-81
2021/01/27 09:05:05;;;;;;;13.73;5.10;;;;;;;;;;5126286;27;20047;-81
2021/01/27 09:07:31;;;;;;;6.17;4.23;;;;;;;;;;5135872;27;20011;-81
2021/01/27 09:09:56;;;;;;;4.47;4.00;;;;;;;;;;5135860;27;20493;-81
2021/01/27 09:12:25;;;;;;;6.60;4.63;;;;;;;;;;5135897;27;20019;-80
2021/01/27 09:14:52;;;;;;;6.80;4.57;;;;;;;;;;5135960;27;20092;-81
2021/01/27 09:17:17;;;;;;;5.70;4.47;;;;;;;;;;5137063;27;20152;-81
2021/01/27 09:19:44;;;;;;;7.27;4.23;;;;;;;;;;5135731;27;20114;-81
2021/01/27 09:22:16;;;;;;;7.03;4.87;;;;;;;;;;5135998;27;20023;-81
2021/01/27 09:24:41;;;;;;;;;;;;;;;;;;5137324;27;20039;-81
2021/01/27 09:27:16;;;;;;;7.53;4.57;;;;;;;;;;5135384;27;19953;-81
2021/01/27 09:29:41;;;;;;;8.83;4.90;;;;;;;;;;5135765;27;20027;-81
2021/01/27 09:32:17;;;;;;;7.37;4.80;;;;;;;;;;5135424;27;20027;-81
2021/01/27 09:34:43;;;;;;;6.17;4.70;;;;;;;;;;5135759;27;20054;-81
2021/01/27 09:37:12;;;;;;;9.07;4.30;;;;;;;;;;5135120;27;20055;-81
2021/01/27 09:39:44;;;;;;;7.70;4.83;;;;;;;;;;5135441;27;20110;-81
2021/01/27 09:42:15;;;;;;;7.43;5.00;;;;;;;;;;5135191;27;20064;-81
2021/01/27 09:44:40;;;;;;;7.83;4.87;;;;;;;;;;5135264;27;20035;-81
2021/01/27 09:47:08;;;;;;;9.77;5.10;;;;;;;;;;5135213;27;20015;-81
2021/01/27 09:49:39;;;;;;;7.63;4.73;;;;;;;;;;5136465;27;20027;-81
2021/01/27 09:52:04;;;;;;;7.30;4.83;;;;;;;;;;5135202;27;20088;-81
2021/01/27 09:54:29;;;;;;;8.00;5.07;;;;;;;;;;5135064;27;20473;-81
2021/01/27 09:56:58;;;;;;;8.37;5.60;;;;;;;;;;5135389;27;20023;-81
2021/01/27 09:59:23;;;;;;;8.63;5.30;;;;;;;;;;5118839;27;20053;-81
2021/01/27 10:01:49;;;;;;;9.27;5.07;;;;;;;;;;5134385;27;20487;-81
2021/01/27 10:04:16;;;;;;;7.23;5.43;;;;;;;;;;5134059;27;20056;-81
2021/01/27 10:06:52;;;;;;;8.20;4.80;;;;;;;;;;5134102;27;20018;-81
2021/01/27 10:09:23;;;;;;;7.43;5.00;;;;;;;;;;5133703;27;20019;-81
2021/01/27 10:11:57;;;;;;;7.80;4.93;;;;;;;;;;5133773;27;20064;-81
2021/01/27 10:14:23;;;;;;;11.13;5.97;;;;;;;;;;5135013;27;20043;-81
2021/01/27 10:16:50;;;;;;;9.47;5.83;;;;;;;;;;5133521;27;20015;-80
2021/01/27 10:19:20;;;;;;;10.30;5.97;;;;;;;;;;5133660;27;20486;-81
2021/01/27 10:21:46;;;;;;;9.30;5.37;;;;;;;;;;5135296;27;20479;-81
2021/01/27 10:24:30;;;;;;;13.77;6.67;;;;;;;;;;5133800;27;20507;-81
2021/01/27 10:27:03;;;;;;;12.40;5.93;;;;;;;;;;5133583;27;20470;-81
2021/01/27 10:29:37;;;;;;;8.70;5.93;;;;;;;;;;5134422;27;20011;-81
2021/01/27 10:32:24;;;;;;;11.77;6.10;;;;;;;;;;5134114;27;20022;-81
2021/01/27 10:34:50;;;;;;;11.17;6.47;;;;;;;;;;5134231;27;20100;-81
2021/01/27 10:37:34;;;;;;;10.30;6.80;;;;;;;;;;5134201;27;20520;-81
2021/01/27 10:40:11;;;;;;;11.97;7.40;;;;;;;;;;5134005;27;20031;-81
2021/01/27 10:42:38;;;;;;;12.20;7.60;;;;;;;;;;5135412;27;20015;-81
2021/01/27 10:45:32;;;;;;;10.47;7.00;;;;;;;;;;5134100;27;20049;-81
2021/01/27 10:48:10;;;;;;;11.70;6.77;;;;;;;;;;5116669;27;20402;-81
2021/01/27 10:50:38;;;;;;;14.20;7.33;;;;;;;;;;5133631;27;20016;-81
2021/01/27 10:53:04;;;;;;;13.43;8.00;;;;;;;;;;5134008;27;20015;-81
2021/01/27 10:55:31;;;;;;;9.83;6.90;;;;;;;;;;5133355;27;20110;-81
2021/01/27 10:58:03;;;;;;;11.73;8.13;;;;;;;;;;5133527;27;20030;-81
2021/01/27 11:00:28;;;;;;;13.33;8.33;;;;;;;;;;5133511;27;20022;-81
2021/01/27 11:02:53;;;;;;;13.37;8.20;;;;;;;;;;5133837;27;20460;-81
2021/01/27 11:05:18;;;;;;;14.27;8.17;;;;;;;;;;5134587;27;20022;-81
2021/01/27 11:07:43;;;;;;;12.50;9.30;;;;;;;;;;5133488;27;20012;-81
2021/01/27 11:10:09;;;;;;;15.27;7.23;;;;;;;;;;5134424;27;20084;-81
2021/01/27 11:12:34;;;;;;;13.13;8.33;;;;;;;;;;5133530;27;20170;-81
2021/01/27 11:14:59;;;;;;;15.90;8.80;;;;;;;;;;5133468;27;20023;-81
2021/01/27 11:17:24;;;;;;;13.47;7.87;;;;;;;;;;5133521;27;20473;-81
2021/01/27 11:19:50;;;;;;;15.20;8.87;;;;;;;;;;5133254;27;20312;-81
2021/01/27 11:22:15;;;;;;;12.27;8.13;;;;;;;;;;5132923;27;20118;-81
2021/01/27 11:24:40;;;;;;;16.13;8.93;;;;;;;;;;5133174;27;20012;-80
2021/01/27 11:27:05;;;;;;;16.63;9.00;;;;;;;;;;5133207;27;20423;-80
2021/01/27 11:29:30;;;;;;;22.93;12.23;;;;;;;;;;5133152;27;20015;-81
2021/01/27 11:31:55;;;;;;;18.27;10.50;;;;;;;;;;5132936;27;20072;-80
2021/01/27 11:34:21;;;;;;;14.57;9.17;;;;;;;;;;5133036;27;20019;-81
2021/01/27 11:36:46;;;;;;;16.93;8.50;;;;;;;;;;5132649;27;20027;-81
2021/01/27 11:39:11;;;;;;;15.70;9.50;;;;;;;;;;5133041;27;20023;-81
2021/01/27 11:41:36;;;;;;;15.47;10.07;;;;;;;;;;5132819;27;20114;-81
2021/01/27 11:44:02;;;;;;;15.97;9.97;;;;;;;;;;5133924;27;20015;-81
2021/01/27 11:46:27;;;;;;;14.40;9.03;;;;;;;;;;5133006;27;20358;-81
2021/01/27 11:48:52;;;;;;;19.57;8.80;;;;;;;;;;5132654;27;20015;-81
2021/01/27 11:51:18;;;;;;;14.03;8.83;;;;;;;;;;5133955;27;20019;-81
2021/01/27 11:53:43;;;;;;;16.70;9.73;;;;;;;;;;5132775;27;20019;-81
2021/01/27 11:56:09;;;;;;;14.87;9.90;;;;;;;;;;5134023;27;20016;-81
2021/01/27 11:58:34;;;;;;;15.13;10.20;;;;;;;;;;5132546;27;20484;-81
2021/01/27 12:01:00;;;;;;;17.40;10.17;;;;;;;;;;5132565;27;20025;-81
2021/01/27 12:03:25;;;;;;;14.87;9.20;;;;;;;;;;5132597;27;20461;-81
2021/01/27 12:05:51;;;;;;;17.53;9.50;;;;;;;;;;5131717;27;20023;-81
2021/01/27 12:08:16;;;;;;;15.70;10.47;;;;;;;;;;5132731;27;20982;-81
2021/01/27 12:10:42;;;;;;;17.23;10.70;;;;;;;;;;5131698;27;20037;-81
2021/01/27 12:13:07;;;;;;;18.70;11.87;;;;;;;;;;5132878;27;20031;-81
2021/01/27 12:15:32;;;;;;;17.63;9.77;;;;;;;;;;5131409;27;20487;-81
2021/01/27 12:17:58;;;;;;;17.40;9.33;;;;;;;;;;5131403;27;20019;-81
2021/01/27 12:20:25;;;;;;;14.93;8.27;;;;;;;;;;5131794;27;20106;-81
2021/01/27 12:22:50;;;;;;;17.10;9.73;;;;;;;;;;5130915;27;20466;-81
2021/01/27 12:25:15;;;;;;;17.50;9.57;;;;;;;;;;5132724;27;20018;-81
2021/01/27 12:27:41;;;;;;;20.03;11.43;;;;;;;;;;5130923;27;20048;-81
2021/01/27 12:30:07;;;;;;;19.13;10.57;;;;;;;;;;5130571;27;20497;-81
2021/01/27 12:32:32;;;;;;;18.93;10.47;;;;;;;;;;5131665;27;20053;-81
2021/01/27 12:34:58;;;;;;;20.20;10.33;;;;;;;;;;5131982;27;20055;-81
2021/01/27 12:37:23;;;;;;;18.27;11.70;;;;;;;;;;5132133;28;20442;-81
2021/01/27 12:39:48;;;;;;;20.00;11.50;;;;;;;;;;5132359;28;20019;-81
2021/01/27 12:42:13;;;;;;;23.20;11.77;;;;;;;;;;5132016;28;20015;-80
2021/01/27 12:44:39;;;;;;;21.17;11.20;;;;;;;;;;5131771;28;20062;-81
2021/01/27 12:47:04;;;;;;;18.30;11.43;;;;;;;;;;5131892;28;20911;-80
2021/01/27 12:49:30;;;;;;;17.83;10.43;;;;;;;;;;5132230;28;20039;-81
2021/01/27 12:51:55;;;;;;;20.77;11.83;;;;;;;;;;5131915;28;20466;-80
2021/01/27 12:54:20;;;;;;;20.13;11.07;;;;;;;;;;5132198;28;20423;-81
2021/01/27 12:56:45;;;;;;;19.63;10.60;;;;;;;;;;5131745;28;20510;-81
2021/01/27 12:59:11;;;;;;;19.90;11.73;;;;;;;;;;5131912;28;20007;-81
2021/01/27 13:01:36;;;;;;;21.23;11.03;;;;;;;;;;5133444;28;20473;-81
2021/01/27 13:04:01;;;;;;;19.97;11.37;;;;;;;;;;5131882;28;20046;-81
2021/01/27 13:06:26;;;;;;;25.50;12.80;;;;;;;;;;5132343;28;20030;-81
2021/01/27 13:08:51;;;;;;;20.40;11.50;;;;;;;;;;5133017;28;20466;-81
2021/01/27 13:11:17;;;;;;;22.47;11.90;;;;;;;;;;5133235;28;20154;-81
2021/01/27 13:13:42;;;;;;;22.23;11.80;;;;;;;;;;5131811;28;20500;-81
2021/01/27 13:16:07;;;;;;;23.13;13.13;;;;;;;;;;5131476;28;20023;-81
2021/01/27 13:18:33;;;;;;;20.33;11.50;;;;;;;;;;5117409;28;20110;-81
2021/01/27 13:20:59;;;;;;;20.80;11.43;;;;;;;;;;5131874;28;20061;-81
2021/01/27 13:23:24;;;;;;;23.43;12.37;;;;;;;;;;5131822;28;20031;-81
2021/01/27 13:25:49;;;;;;;22.80;11.33;;;;;;;;;;5131993;28;20079;-81
2021/01/27 13:28:14;;;;;;;23.53;11.83;;;;;;;;;;5133251;28;20031;-81
2021/01/27 13:30:40;;;;;;;24.50;12.87;;;;;;;;;;5131955;28;20048;-81
2021/01/27 13:33:07;;;;;;;24.07;12.47;;;;;;;;;;5133499;27;20042;-81
2021/01/27 13:35:32;;;;;;;25.97;14.07;;;;;;;;;;5135643;27;20019;-81
2021/01/27 13:37:59;;;;;;;22.70;11.73;;;;;;;;;;5136727;27;20042;-81
2021/01/27 13:40:25;;;;;;;22.70;12.17;;;;;;;;;;5135553;27;20098;-81
2021/01/27 13:42:50;;;;;;;26.27;12.27;;;;;;;;;;5135678;27;20106;-80
2021/01/27 13:45:16;;;;;;;24.53;12.43;;;;;;;;;;5135434;27;20050;-81
2021/01/27 13:47:41;;;;;;;30.90;13.50;;;;;;;;;;5135376;27;20023;-81
2021/01/27 13:50:08;;;;;;;37.83;16.77;;;;;;;;;;5136655;27;20038;-81
2021/01/27 13:52:33;;;;;;;28.10;14.03;;;;;;;;;;5135164;27;20072;-81
2021/01/27 13:54:58;;;;;;;28.10;13.03;;;;;;;;;;5134646;27;20023;-81
2021/01/27 13:57:24;;;;;;;27.40;13.67;;;;;;;;;;5135050;27;20075;-81
2021/01/27 13:59:49;;;;;;;32.27;14.93;;;;;;;;;;5135183;27;20015;-81
2021/01/27 14:02:14;;;;;;;29.10;14.63;;;;;;;;;;5134891;27;20015;-81
2021/01/27 14:04:39;;;;;;;26.67;13.87;;;;;;;;;;5135214;27;20007;-81
2021/01/27 14:07:04;;;;;;;25.30;13.93;;;;;;;;;;5136358;27;20042;-81
2021/01/27 14:09:29;;;;;;;31.37;13.47;;;;;;;;;;5133807;27;20019;-80
2021/01/27 14:11:56;;;;;;;30.90;14.60;;;;;;;;;;5134091;27;20030;-81
2021/01/27 14:14:21;;;;;;;32.17;15.63;;;;;;;;;;5134801;27;20110;-81
2021/01/27 14:16:46;;;;;;;32.17;14.60;;;;;;;;;;5135708;27;20483;-81
2021/01/27 14:19:11;;;;;;;29.13;13.13;;;;;;;;;;5134630;27;20034;-82
2021/01/27 14:21:36;;;;;;;34.80;14.30;;;;;;;;;;5134206;27;20076;-81
2021/01/27 14:24:02;;;;;;;32.63;14.37;;;;;;;;;;5134192;27;20025;-82
2021/01/27 14:26:29;;;;;;;31.13;16.20;;;;;;;;;;5135677;27;20023;-81
2021/01/27 14:28:55;;;;;;;35.30;16.63;;;;;;;;;;5127238;27;20043;-81
2021/01/27 14:31:20;;;;;;;34.83;16.70;;;;;;;;;;5130038;27;20019;-81
2021/01/27 14:33:45;;;;;;;35.87;17.97;;;;;;;;;;5134323;27;20019;-82
2021/01/27 14:36:10;;;;;;;36.13;15.77;;;;;;;;;;5134332;27;20019;-81
2021/01/27 14:38:35;;;;;;;32.10;15.93;;;;;;;;;;5133993;27;20026;-81
2021/01/27 14:41:01;;;;;;;31.77;16.53;;;;;;;;;;5133892;27;20044;-82
2021/01/27 14:43:26;;;;;;;33.60;16.77;;;;;;;;;;5135218;27;20023;-81
2021/01/27 14:45:52;;;;;;;38.03;16.90;;;;;;;;;;5133458;27;20453;-81